sensor_id;sensor_type;location;lat;lon;timestamp;P1;durP1;ratioP1;P2;durP2;ratioP2
59074;SDS011;44860;53.020;6.738;2022-12-07T00:00:51;8.35;;;3.38;;
59074;SDS011;44860;53.020;6.738;2022-12-07T00:03:17;11.77;;;3.45;;
59074;SDS011;44860;53.020;6.738;2022-12-07T00:05:43;14.15;;;4.72;;
59074;SDS011;44860;53.020;6.738;2022-12-07T00:08:08;15.52;;;6.35;;
59074;SDS011;44860;53.020;6.738;2022-12-07T00:10:34;15.70;;;6.57;;
59074;SDS011;44860;53.020;6.738;2022-12-07T00:13:00;17.40;;;4.90;;
59074;SDS011;44860;53.020;6.738;2022-12-07T00:15:25;16.33;;;6.68;;
59074;SDS011;44860;53.020;6.738;2022-12-07T00:17:51;14.20;;;4.78;;
59074;SDS011;44860;53.020;6.738;2022-12-07T00:20:17;12.65;;;3.45;;
59074;SDS011;44860;53.020;6.738;2022-12-07T00:22:42;11.38;;;2.90;;
59074;SDS011;44860;53.020;6.738;2022-12-07T00:25:08;7.93;;;2.85;;
59074;SDS011;44860;53.020;6.738;2022-12-07T00:27:34;6.90;;;2.08;;
59074;SDS011;44860;53.020;6.738;2022-12-07T00:29:59;10.82;;;2.30;;
59074;SDS011;44860;53.020;6.738;2022-12-07T00:32:25;9.23;;;1.92;;
59074;SDS011;44860;53.020;6.738;2022-12-07T00:34:51;13.02;;;2.40;;
59074;SDS011;44860;53.020;6.738;2022-12-07T00:37:17;11.88;;;2.17;;
59074;SDS011;44860;53.020;6.738;2022-12-07T00:39:42;8.85;;;2.00;;
59074;SDS011;44860;53.020;6.738;2022-12-07T00:42:08;8.95;;;2.10;;
59074;SDS011;44860;53.020;6.738;2022-12-07T00:44:34;12.48;;;1.60;;
59074;SDS011;44860;53.020;6.738;2022-12-07T00:46:59;5.32;;;1.83;;
59074;SDS011;44860;53.020;6.738;2022-12-07T00:49:25;6.57;;;1.55;;
59074;SDS011;44860;53.020;6.738;2022-12-07T00:51:51;6.82;;;1.58;;
59074;SDS011;44860;53.020;6.738;2022-12-07T00:54:16;4.65;;;1.50;;
59074;SDS011;44860;53.020;6.738;2022-12-07T00:56:42;12.60;;;2.05;;
59074;SDS011;44860;53.020;6.738;2022-12-07T00:59:10;8.90;;;2.00;;
59074;SDS011;44860;53.020;6.738;2022-12-07T01:01:39;8.52;;;1.85;;
59074;SDS011;44860;53.020;6.738;2022-12-07T01:04:04;5.43;;;1.70;;
59074;SDS011;44860;53.020;6.738;2022-12-07T01:06:30;7.57;;;1.55;;
59074;SDS011;44860;53.020;6.738;2022-12-07T01:08:56;6.85;;;1.40;;
59074;SDS011;44860;53.020;6.738;2022-12-07T01:11:26;8.35;;;1.67;;
59074;SDS011;44860;53.020;6.738;2022-12-07T01:13:54;8.27;;;1.60;;
59074;SDS011;44860;53.020;6.738;2022-12-07T01:16:21;7.97;;;1.58;;
59074;SDS011;44860;53.020;6.738;2022-12-07T01:18:50;8.25;;;2.08;;
59074;SDS011;44860;53.020;6.738;2022-12-07T01:21:17;8.05;;;1.80;;
59074;SDS011;44860;53.020;6.738;2022-12-07T01:23:46;9.82;;;1.85;;
59074;SDS011;44860;53.020;6.738;2022-12-07T01:26:13;6.38;;;1.60;;
59074;SDS011;44860;53.020;6.738;2022-12-07T01:28:41;12.05;;;2.05;;
59074;SDS011;44860;53.020;6.738;2022-12-07T01:31:09;6.68;;;1.70;;
59074;SDS011;44860;53.020;6.738;2022-12-07T01:33:37;10.15;;;1.77;;
59074;SDS011;44860;53.020;6.738;2022-12-07T01:36:08;6.18;;;1.88;;
59074;SDS011;44860;53.020;6.738;2022-12-07T01:38:41;6.70;;;1.50;;
59074;SDS011;44860;53.020;6.738;2022-12-07T01:41:07;5.93;;;1.38;;
59074;SDS011;44860;53.020;6.738;2022-12-07T01:43:33;5.53;;;1.40;;
59074;SDS011;44860;53.020;6.738;2022-12-07T01:45:59;8.88;;;1.70;;
59074;SDS011;44860;53.020;6.738;2022-12-07T01:48:27;6.10;;;1.40;;
59074;SDS011;44860;53.020;6.738;2022-12-07T01:51:04;5.95;;;1.30;;
59074;SDS011;44860;53.020;6.738;2022-12-07T01:53:34;6.13;;;1.33;;
59074;SDS011;44860;53.020;6.738;2022-12-07T01:56:03;6.45;;;1.40;;
59074;SDS011;44860;53.020;6.738;2022-12-07T01:58:30;6.93;;;1.40;;
59074;SDS011;44860;53.020;6.738;2022-12-07T02:00:56;7.45;;;1.30;;
59074;SDS011;44860;53.020;6.738;2022-12-07T02:03:24;9.68;;;1.73;;
59074;SDS011;44860;53.020;6.738;2022-12-07T02:05:54;7.03;;;1.52;;
59074;SDS011;44860;53.020;6.738;2022-12-07T02:08:20;8.43;;;1.20;;
59074;SDS011;44860;53.020;6.738;2022-12-07T02:10:46;8.52;;;1.40;;
59074;SDS011;44860;53.020;6.738;2022-12-07T02:13:19;6.13;;;1.13;;
59074;SDS011;44860;53.020;6.738;2022-12-07T02:24:15;9.00;;;1.33;;
59074;SDS011;44860;53.020;6.738;2022-12-07T02:32:48;5.47;;;1.00;;
59074;SDS011;44860;53.020;6.738;2022-12-07T02:40:20;7.53;;;1.40;;
59074;SDS011;44860;53.020;6.738;2022-12-07T02:42:52;6.40;;;0.95;;
59074;SDS011;44860;53.020;6.738;2022-12-07T02:45:29;8.27;;;1.23;;
59074;SDS011;44860;53.020;6.738;2022-12-07T02:47:57;5.00;;;0.98;;
59074;SDS011;44860;53.020;6.738;2022-12-07T02:50:25;4.90;;;1.00;;
59074;SDS011;44860;53.020;6.738;2022-12-07T02:52:51;7.07;;;1.15;;
59074;SDS011;44860;53.020;6.738;2022-12-07T02:55:17;7.57;;;1.17;;
59074;SDS011;44860;53.020;6.738;2022-12-07T02:57:54;6.00;;;1.20;;
59074;SDS011;44860;53.020;6.738;2022-12-07T03:01:25;7.13;;;1.90;;
59074;SDS011;44860;53.020;6.738;2022-12-07T03:03:47;10.43;;;5.30;;
59074;SDS011;44860;53.020;6.738;2022-12-07T03:06:22;13.35;;;1.83;;
59074;SDS011;44860;53.020;6.738;2022-12-07T03:12:21;10.77;;;1.38;;
59074;SDS011;44860;53.020;6.738;2022-12-07T03:14:52;7.35;;;1.30;;
59074;SDS011;44860;53.020;6.738;2022-12-07T03:17:26;8.02;;;1.05;;
59074;SDS011;44860;53.020;6.738;2022-12-07T03:19:57;6.05;;;1.08;;
59074;SDS011;44860;53.020;6.738;2022-12-07T03:22:24;6.90;;;0.98;;
59074;SDS011;44860;53.020;6.738;2022-12-07T03:24:55;6.05;;;1.08;;
59074;SDS011;44860;53.020;6.738;2022-12-07T03:27:30;6.22;;;1.15;;
59074;SDS011;44860;53.020;6.738;2022-12-07T03:30:04;6.80;;;1.05;;
59074;SDS011;44860;53.020;6.738;2022-12-07T03:35:31;7.78;;;0.82;;
59074;SDS011;44860;53.020;6.738;2022-12-07T03:38:20;8.13;;;1.10;;
59074;SDS011;44860;53.020;6.738;2022-12-07T03:41:04;5.32;;;1.20;;
59074;SDS011;44860;53.020;6.738;2022-12-07T03:43:35;6.82;;;1.25;;
59074;SDS011;44860;53.020;6.738;2022-12-07T03:46:06;5.75;;;1.40;;
59074;SDS011;44860;53.020;6.738;2022-12-07T03:57:01;5.30;;;0.93;;
59074;SDS011;44860;53.020;6.738;2022-12-07T03:59:28;7.90;;;1.13;;
59074;SDS011;44860;53.020;6.738;2022-12-07T04:01:55;5.38;;;0.82;;
59074;SDS011;44860;53.020;6.738;2022-12-07T04:04:26;8.48;;;1.20;;
59074;SDS011;44860;53.020;6.738;2022-12-07T04:06:51;5.57;;;1.00;;
59074;SDS011;44860;53.020;6.738;2022-12-07T04:09:17;6.60;;;1.08;;
59074;SDS011;44860;53.020;6.738;2022-12-07T04:11:43;6.03;;;0.93;;
59074;SDS011;44860;53.020;6.738;2022-12-07T04:14:09;13.55;;;1.48;;
59074;SDS011;44860;53.020;6.738;2022-12-07T04:16:54;10.82;;;1.10;;
59074;SDS011;44860;53.020;6.738;2022-12-07T04:19:25;10.18;;;1.33;;
59074;SDS011;44860;53.020;6.738;2022-12-07T04:21:52;5.85;;;1.50;;
59074;SDS011;44860;53.020;6.738;2022-12-07T04:24:18;7.80;;;1.17;;
59074;SDS011;44860;53.020;6.738;2022-12-07T04:26:45;8.05;;;1.48;;
59074;SDS011;44860;53.020;6.738;2022-12-07T04:29:11;11.57;;;2.00;;
59074;SDS011;44860;53.020;6.738;2022-12-07T04:31:38;9.02;;;1.42;;
59074;SDS011;44860;53.020;6.738;2022-12-07T04:34:04;9.45;;;1.20;;
59074;SDS011;44860;53.020;6.738;2022-12-07T04:36:30;6.13;;;1.10;;
59074;SDS011;44860;53.020;6.738;2022-12-07T04:38:56;8.98;;;1.50;;
59074;SDS011;44860;53.020;6.738;2022-12-07T04:41:23;7.72;;;1.20;;
59074;SDS011;44860;53.020;6.738;2022-12-07T04:43:59;5.22;;;1.00;;
59074;SDS011;44860;53.020;6.738;2022-12-07T04:46:27;5.47;;;0.98;;
59074;SDS011;44860;53.020;6.738;2022-12-07T04:48:53;7.93;;;1.13;;
59074;SDS011;44860;53.020;6.738;2022-12-07T04:51:21;6.57;;;1.13;;
59074;SDS011;44860;53.020;6.738;2022-12-07T04:53:49;5.45;;;1.05;;
59074;SDS011;44860;53.020;6.738;2022-12-07T04:56:16;8.52;;;1.20;;
59074;SDS011;44860;53.020;6.738;2022-12-07T04:58:43;9.40;;;1.27;;
59074;SDS011;44860;53.020;6.738;2022-12-07T05:01:10;7.40;;;1.10;;
59074;SDS011;44860;53.020;6.738;2022-12-07T05:03:36;12.00;;;1.30;;
59074;SDS011;44860;53.020;6.738;2022-12-07T05:06:02;11.05;;;1.13;;
59074;SDS011;44860;53.020;6.738;2022-12-07T05:08:29;8.70;;;1.08;;
59074;SDS011;44860;53.020;6.738;2022-12-07T05:10:54;8.23;;;1.30;;
59074;SDS011;44860;53.020;6.738;2022-12-07T05:13:20;8.65;;;1.40;;
59074;SDS011;44860;53.020;6.738;2022-12-07T05:15:46;11.50;;;1.45;;
59074;SDS011;44860;53.020;6.738;2022-12-07T05:18:13;6.43;;;0.90;;
59074;SDS011;44860;53.020;6.738;2022-12-07T05:20:39;6.18;;;1.20;;
59074;SDS011;44860;53.020;6.738;2022-12-07T05:23:05;10.13;;;1.35;;
59074;SDS011;44860;53.020;6.738;2022-12-07T05:25:31;8.10;;;1.27;;
59074;SDS011;44860;53.020;6.738;2022-12-07T05:27:57;6.60;;;1.00;;
59074;SDS011;44860;53.020;6.738;2022-12-07T05:30:23;9.40;;;1.63;;
59074;SDS011;44860;53.020;6.738;2022-12-07T05:32:49;11.75;;;2.28;;
59074;SDS011;44860;53.020;6.738;2022-12-07T05:35:16;9.02;;;1.30;;
59074;SDS011;44860;53.020;6.738;2022-12-07T05:37:42;10.82;;;1.48;;
59074;SDS011;44860;53.020;6.738;2022-12-07T05:40:09;11.55;;;1.25;;
59074;SDS011;44860;53.020;6.738;2022-12-07T05:42:35;9.85;;;1.48;;
59074;SDS011;44860;53.020;6.738;2022-12-07T05:45:01;8.52;;;0.98;;
59074;SDS011;44860;53.020;6.738;2022-12-07T05:47:27;6.93;;;1.00;;
59074;SDS011;44860;53.020;6.738;2022-12-07T05:49:52;7.03;;;1.10;;
59074;SDS011;44860;53.020;6.738;2022-12-07T05:52:18;6.68;;;1.30;;
59074;SDS011;44860;53.020;6.738;2022-12-07T05:54:43;5.03;;;0.90;;
59074;SDS011;44860;53.020;6.738;2022-12-07T05:57:09;3.22;;;0.70;;
59074;SDS011;44860;53.020;6.738;2022-12-07T05:59:35;5.53;;;1.08;;
59074;SDS011;44860;53.020;6.738;2022-12-07T06:02:02;5.45;;;0.93;;
59074;SDS011;44860;53.020;6.738;2022-12-07T06:04:31;6.43;;;1.13;;
59074;SDS011;44860;53.020;6.738;2022-12-07T06:06:59;3.67;;;0.85;;
59074;SDS011;44860;53.020;6.738;2022-12-07T06:09:25;6.20;;;1.00;;
59074;SDS011;44860;53.020;6.738;2022-12-07T06:11:52;6.80;;;1.10;;
59074;SDS011;44860;53.020;6.738;2022-12-07T06:14:36;4.53;;;1.10;;
59074;SDS011;44860;53.020;6.738;2022-12-07T06:17:02;3.80;;;0.80;;
59074;SDS011;44860;53.020;6.738;2022-12-07T06:19:28;6.93;;;1.27;;
59074;SDS011;44860;53.020;6.738;2022-12-07T06:21:53;7.68;;;1.30;;
59074;SDS011;44860;53.020;6.738;2022-12-07T06:24:19;6.55;;;1.23;;
59074;SDS011;44860;53.020;6.738;2022-12-07T06:26:45;7.47;;;1.15;;
59074;SDS011;44860;53.020;6.738;2022-12-07T06:29:11;6.18;;;1.13;;
59074;SDS011;44860;53.020;6.738;2022-12-07T06:31:37;4.68;;;1.10;;
59074;SDS011;44860;53.020;6.738;2022-12-07T06:34:05;7.38;;;1.50;;
59074;SDS011;44860;53.020;6.738;2022-12-07T06:36:41;8.63;;;1.50;;
59074;SDS011;44860;53.020;6.738;2022-12-07T06:39:08;11.35;;;2.50;;
59074;SDS011;44860;53.020;6.738;2022-12-07T06:41:37;8.38;;;2.60;;
59074;SDS011;44860;53.020;6.738;2022-12-07T06:44:04;10.75;;;1.83;;
59074;SDS011;44860;53.020;6.738;2022-12-07T06:46:31;14.60;;;1.88;;
59074;SDS011;44860;53.020;6.738;2022-12-07T06:48:56;10.18;;;1.65;;
59074;SDS011;44860;53.020;6.738;2022-12-07T06:51:22;11.05;;;1.70;;
59074;SDS011;44860;53.020;6.738;2022-12-07T06:53:48;9.27;;;1.42;;
59074;SDS011;44860;53.020;6.738;2022-12-07T06:56:14;9.40;;;1.40;;
59074;SDS011;44860;53.020;6.738;2022-12-07T06:58:40;9.65;;;1.63;;
59074;SDS011;44860;53.020;6.738;2022-12-07T07:01:13;11.93;;;3.00;;
59074;SDS011;44860;53.020;6.738;2022-12-07T07:03:41;10.40;;;2.85;;
59074;SDS011;44860;53.020;6.738;2022-12-07T07:06:07;11.45;;;2.80;;
59074;SDS011;44860;53.020;6.738;2022-12-07T07:08:34;10.10;;;2.42;;
59074;SDS011;44860;53.020;6.738;2022-12-07T07:11:00;8.00;;;1.95;;
59074;SDS011;44860;53.020;6.738;2022-12-07T07:13:26;7.15;;;1.48;;
59074;SDS011;44860;53.020;6.738;2022-12-07T07:15:52;9.93;;;3.30;;
59074;SDS011;44860;53.020;6.738;2022-12-07T07:18:18;15.23;;;2.20;;
59074;SDS011;44860;53.020;6.738;2022-12-07T07:20:44;8.80;;;2.15;;
59074;SDS011;44860;53.020;6.738;2022-12-07T07:23:10;8.93;;;1.65;;
59074;SDS011;44860;53.020;6.738;2022-12-07T07:25:35;6.97;;;1.90;;
59074;SDS011;44860;53.020;6.738;2022-12-07T07:28:01;7.70;;;1.90;;
59074;SDS011;44860;53.020;6.738;2022-12-07T07:30:27;10.95;;;1.90;;
59074;SDS011;44860;53.020;6.738;2022-12-07T07:33:02;7.88;;;1.88;;
59074;SDS011;44860;53.020;6.738;2022-12-07T07:35:29;9.35;;;1.30;;
59074;SDS011;44860;53.020;6.738;2022-12-07T07:37:56;9.90;;;1.55;;
59074;SDS011;44860;53.020;6.738;2022-12-07T07:40:21;11.13;;;1.52;;
59074;SDS011;44860;53.020;6.738;2022-12-07T07:42:48;5.57;;;1.10;;
59074;SDS011;44860;53.020;6.738;2022-12-07T07:45:14;8.73;;;1.30;;
59074;SDS011;44860;53.020;6.738;2022-12-07T07:47:40;7.28;;;1.27;;
59074;SDS011;44860;53.020;6.738;2022-12-07T07:50:06;4.65;;;1.00;;
59074;SDS011;44860;53.020;6.738;2022-12-07T07:52:32;7.38;;;0.90;;
59074;SDS011;44860;53.020;6.738;2022-12-07T07:54:57;7.45;;;1.45;;
59074;SDS011;44860;53.020;6.738;2022-12-07T07:57:23;7.43;;;1.10;;
59074;SDS011;44860;53.020;6.738;2022-12-07T07:59:49;7.85;;;1.30;;
59074;SDS011;44860;53.020;6.738;2022-12-07T08:02:16;8.32;;;1.35;;
59074;SDS011;44860;53.020;6.738;2022-12-07T08:04:42;10.23;;;1.58;;
59074;SDS011;44860;53.020;6.738;2022-12-07T08:07:09;6.53;;;1.15;;
59074;SDS011;44860;53.020;6.738;2022-12-07T08:09:35;6.43;;;1.30;;
59074;SDS011;44860;53.020;6.738;2022-12-07T08:12:01;5.25;;;1.27;;
59074;SDS011;44860;53.020;6.738;2022-12-07T08:14:26;4.93;;;1.40;;
59074;SDS011;44860;53.020;6.738;2022-12-07T08:16:53;7.50;;;1.30;;
59074;SDS011;44860;53.020;6.738;2022-12-07T08:19:20;5.65;;;1.13;;
59074;SDS011;44860;53.020;6.738;2022-12-07T08:21:45;7.03;;;1.10;;
59074;SDS011;44860;53.020;6.738;2022-12-07T08:24:11;8.10;;;1.38;;
59074;SDS011;44860;53.020;6.738;2022-12-07T08:26:37;6.68;;;1.80;;
59074;SDS011;44860;53.020;6.738;2022-12-07T08:29:03;8.73;;;1.33;;
59074;SDS011;44860;53.020;6.738;2022-12-07T08:31:28;4.78;;;1.30;;
59074;SDS011;44860;53.020;6.738;2022-12-07T08:33:54;7.82;;;1.40;;
59074;SDS011;44860;53.020;6.738;2022-12-07T08:36:20;7.22;;;1.40;;
59074;SDS011;44860;53.020;6.738;2022-12-07T08:38:47;8.82;;;1.63;;
59074;SDS011;44860;53.020;6.738;2022-12-07T08:41:13;9.63;;;2.58;;
59074;SDS011;44860;53.020;6.738;2022-12-07T08:43:39;7.13;;;2.20;;
59074;SDS011;44860;53.020;6.738;2022-12-07T08:46:06;8.15;;;1.88;;
59074;SDS011;44860;53.020;6.738;2022-12-07T08:48:45;8.82;;;1.95;;
59074;SDS011;44860;53.020;6.738;2022-12-07T08:51:17;8.05;;;1.73;;
59074;SDS011;44860;53.020;6.738;2022-12-07T08:53:44;7.55;;;2.22;;
59074;SDS011;44860;53.020;6.738;2022-12-07T08:56:10;8.85;;;1.90;;
59074;SDS011;44860;53.020;6.738;2022-12-07T08:58:36;9.15;;;2.05;;
59074;SDS011;44860;53.020;6.738;2022-12-07T09:01:03;8.35;;;2.03;;
59074;SDS011;44860;53.020;6.738;2022-12-07T09:03:30;8.90;;;2.10;;
59074;SDS011;44860;53.020;6.738;2022-12-07T09:05:56;9.30;;;1.85;;
59074;SDS011;44860;53.020;6.738;2022-12-07T09:08:23;7.72;;;1.52;;
59074;SDS011;44860;53.020;6.738;2022-12-07T09:10:54;7.68;;;1.75;;
59074;SDS011;44860;53.020;6.738;2022-12-07T09:13:20;9.27;;;1.90;;
59074;SDS011;44860;53.020;6.738;2022-12-07T09:15:46;12.68;;;2.22;;
59074;SDS011;44860;53.020;6.738;2022-12-07T09:18:11;12.85;;;2.10;;
59074;SDS011;44860;53.020;6.738;2022-12-07T09:20:37;9.95;;;1.88;;
59074;SDS011;44860;53.020;6.738;2022-12-07T09:23:05;9.88;;;2.00;;
59074;SDS011;44860;53.020;6.738;2022-12-07T09:25:31;7.00;;;1.58;;
59074;SDS011;44860;53.020;6.738;2022-12-07T09:27:57;9.93;;;1.83;;
59074;SDS011;44860;53.020;6.738;2022-12-07T09:30:30;14.45;;;2.90;;
59074;SDS011;44860;53.020;6.738;2022-12-07T09:32:56;13.65;;;2.33;;
59074;SDS011;44860;53.020;6.738;2022-12-07T09:35:22;7.40;;;1.90;;
59074;SDS011;44860;53.020;6.738;2022-12-07T09:37:49;11.80;;;2.65;;
59074;SDS011;44860;53.020;6.738;2022-12-07T09:40:15;12.30;;;1.67;;
59074;SDS011;44860;53.020;6.738;2022-12-07T09:42:44;15.48;;;2.35;;
59074;SDS011;44860;53.020;6.738;2022-12-07T09:45:14;9.38;;;1.90;;
59074;SDS011;44860;53.020;6.738;2022-12-07T09:47:42;11.48;;;1.77;;
59074;SDS011;44860;53.020;6.738;2022-12-07T09:50:24;10.98;;;2.20;;
59074;SDS011;44860;53.020;6.738;2022-12-07T09:52:52;9.43;;;1.95;;
59074;SDS011;44860;53.020;6.738;2022-12-07T09:55:24;10.77;;;1.80;;
59074;SDS011;44860;53.020;6.738;2022-12-07T09:57:55;10.43;;;1.77;;
59074;SDS011;44860;53.020;6.738;2022-12-07T10:00:22;7.55;;;1.75;;
59074;SDS011;44860;53.020;6.738;2022-12-07T10:02:56;13.20;;;2.58;;
59074;SDS011;44860;53.020;6.738;2022-12-07T10:07:54;9.27;;;2.30;;
59074;SDS011;44860;53.020;6.738;2022-12-07T10:10:30;12.27;;;2.13;;
59074;SDS011;44860;53.020;6.738;2022-12-07T10:12:59;10.48;;;2.53;;
59074;SDS011;44860;53.020;6.738;2022-12-07T10:18:21;13.75;;;2.05;;
59074;SDS011;44860;53.020;6.738;2022-12-07T10:20:50;11.80;;;2.22;;
59074;SDS011;44860;53.020;6.738;2022-12-07T10:23:26;9.57;;;1.85;;
59074;SDS011;44860;53.020;6.738;2022-12-07T10:25:52;7.55;;;1.92;;
59074;SDS011;44860;53.020;6.738;2022-12-07T10:28:20;8.80;;;1.70;;
59074;SDS011;44860;53.020;6.738;2022-12-07T10:30:59;11.43;;;1.83;;
59074;SDS011;44860;53.020;6.738;2022-12-07T10:33:37;8.65;;;1.60;;
59074;SDS011;44860;53.020;6.738;2022-12-07T10:38:50;11.10;;;1.70;;
59074;SDS011;44860;53.020;6.738;2022-12-07T10:41:52;12.10;;;2.05;;
59074;SDS011;44860;53.020;6.738;2022-12-07T10:44:21;7.43;;;1.63;;
59074;SDS011;44860;53.020;6.738;2022-12-07T10:47:00;6.95;;;1.52;;
59074;SDS011;44860;53.020;6.738;2022-12-07T11:00:19;9.40;;;1.60;;
59074;SDS011;44860;53.020;6.738;2022-12-07T11:10:44;10.18;;;1.90;;
59074;SDS011;44860;53.020;6.738;2022-12-07T11:13:23;9.93;;;1.85;;
59074;SDS011;44860;53.020;6.738;2022-12-07T11:21:58;11.88;;;2.17;;
59074;SDS011;44860;53.020;6.738;2022-12-07T11:24:18;13.35;;;2.90;;
59074;SDS011;44860;53.020;6.738;2022-12-07T11:34:46;9.98;;;2.58;;
59074;SDS011;44860;53.020;6.738;2022-12-07T11:37:16;8.00;;;2.15;;
59074;SDS011;44860;53.020;6.738;2022-12-07T11:43:01;8.07;;;2.28;;
59074;SDS011;44860;53.020;6.738;2022-12-07T11:47:47;5.55;;;1.17;;
59074;SDS011;44860;53.020;6.738;2022-12-07T12:00:51;5.47;;;1.63;;
59074;SDS011;44860;53.020;6.738;2022-12-07T12:03:28;6.10;;;2.17;;
59074;SDS011;44860;53.020;6.738;2022-12-07T12:05:59;4.60;;;3.20;;
59074;SDS011;44860;53.020;6.738;2022-12-07T12:08:27;5.18;;;3.30;;
59074;SDS011;44860;53.020;6.738;2022-12-07T12:21:42;10.65;;;3.10;;
59074;SDS011;44860;53.020;6.738;2022-12-07T12:24:10;7.70;;;2.63;;
59074;SDS011;44860;53.020;6.738;2022-12-07T12:26:50;9.25;;;4.70;;
59074;SDS011;44860;53.020;6.738;2022-12-07T12:29:20;12.15;;;5.50;;
59074;SDS011;44860;53.020;6.738;2022-12-07T12:42:47;12.20;;;4.20;;
59074;SDS011;44860;53.020;6.738;2022-12-07T12:45:21;12.68;;;8.80;;
59074;SDS011;44860;53.020;6.738;2022-12-07T12:47:57;10.00;;;3.03;;
59074;SDS011;44860;53.020;6.738;2022-12-07T12:50:34;12.23;;;2.15;;
59074;SDS011;44860;53.020;6.738;2022-12-07T13:00:47;10.93;;;3.60;;
59074;SDS011;44860;53.020;6.738;2022-12-07T13:03:33;11.75;;;3.50;;
59074;SDS011;44860;53.020;6.738;2022-12-07T13:06:19;14.15;;;4.13;;
59074;SDS011;44860;53.020;6.738;2022-12-07T13:08:45;9.00;;;3.10;;
59074;SDS011;44860;53.020;6.738;2022-12-07T13:11:25;12.10;;;4.07;;
59074;SDS011;44860;53.020;6.738;2022-12-07T13:17:07;10.10;;;2.80;;
59074;SDS011;44860;53.020;6.738;2022-12-07T13:27:39;3.50;;;1.10;;
59074;SDS011;44860;53.020;6.738;2022-12-07T13:30:16;4.22;;;0.88;;
59074;SDS011;44860;53.020;6.738;2022-12-07T13:32:50;3.70;;;1.00;;
59074;SDS011;44860;53.020;6.738;2022-12-07T13:35:28;3.85;;;0.90;;
59074;SDS011;44860;53.020;6.738;2022-12-07T13:38:04;1.85;;;0.70;;
59074;SDS011;44860;53.020;6.738;2022-12-07T13:40:40;0.60;;;0.50;;
59074;SDS011;44860;53.020;6.738;2022-12-07T13:43:11;1.92;;;0.93;;
59074;SDS011;44860;53.020;6.738;2022-12-07T13:45:40;3.17;;;0.80;;
59074;SDS011;44860;53.020;6.738;2022-12-07T13:48:14;1.25;;;0.60;;
59074;SDS011;44860;53.020;6.738;2022-12-07T13:50:51;5.70;;;0.60;;
59074;SDS011;44860;53.020;6.738;2022-12-07T13:53:18;5.10;;;0.90;;
59074;SDS011;44860;53.020;6.738;2022-12-07T13:55:45;5.45;;;1.52;;
59074;SDS011;44860;53.020;6.738;2022-12-07T13:58:12;4.45;;;1.60;;
59074;SDS011;44860;53.020;6.738;2022-12-07T14:00:39;4.40;;;1.70;;
59074;SDS011;44860;53.020;6.738;2022-12-07T14:05:39;4.90;;;2.22;;
59074;SDS011;44860;53.020;6.738;2022-12-07T14:10:36;2.60;;;1.17;;
59074;SDS011;44860;53.020;6.738;2022-12-07T14:13:25;5.78;;;3.13;;
59074;SDS011;44860;53.020;6.738;2022-12-07T14:15:52;4.90;;;3.00;;
59074;SDS011;44860;53.020;6.738;2022-12-07T14:18:29;4.53;;;2.42;;
59074;SDS011;44860;53.020;6.738;2022-12-07T14:23:35;5.28;;;3.40;;
59074;SDS011;44860;53.020;6.738;2022-12-07T14:26:05;8.20;;;3.42;;
59074;SDS011;44860;53.020;6.738;2022-12-07T14:28:34;8.35;;;3.80;;
59074;SDS011;44860;53.020;6.738;2022-12-07T14:31:02;9.45;;;4.85;;
59074;SDS011;44860;53.020;6.738;2022-12-07T14:33:28;5.50;;;1.90;;
59074;SDS011;44860;53.020;6.738;2022-12-07T14:35:54;5.32;;;2.15;;
59074;SDS011;44860;53.020;6.738;2022-12-07T14:38:23;3.17;;;1.27;;
59074;SDS011;44860;53.020;6.738;2022-12-07T14:40:49;3.40;;;1.48;;
59074;SDS011;44860;53.020;6.738;2022-12-07T14:43:17;6.50;;;1.35;;
59074;SDS011;44860;53.020;6.738;2022-12-07T14:45:43;3.92;;;1.00;;
59074;SDS011;44860;53.020;6.738;2022-12-07T14:48:10;3.25;;;1.50;;
59074;SDS011;44860;53.020;6.738;2022-12-07T14:50:42;6.68;;;3.13;;
59074;SDS011;44860;53.020;6.738;2022-12-07T14:53:16;7.10;;;3.70;;
59074;SDS011;44860;53.020;6.738;2022-12-07T14:55:47;6.35;;;4.07;;
59074;SDS011;44860;53.020;6.738;2022-12-07T14:58:16;9.95;;;6.85;;
59074;SDS011;44860;53.020;6.738;2022-12-07T15:00:43;7.22;;;5.28;;
59074;SDS011;44860;53.020;6.738;2022-12-07T15:03:08;6.90;;;3.50;;
59074;SDS011;44860;53.020;6.738;2022-12-07T15:05:34;5.63;;;2.50;;
59074;SDS011;44860;53.020;6.738;2022-12-07T15:08:01;4.63;;;2.13;;
59074;SDS011;44860;53.020;6.738;2022-12-07T15:10:28;8.15;;;1.63;;
59074;SDS011;44860;53.020;6.738;2022-12-07T15:13:00;4.93;;;1.25;;
59074;SDS011;44860;53.020;6.738;2022-12-07T15:15:47;3.40;;;1.35;;
59074;SDS011;44860;53.020;6.738;2022-12-07T15:18:13;7.05;;;1.20;;
59074;SDS011;44860;53.020;6.738;2022-12-07T15:20:39;4.05;;;1.52;;
59074;SDS011;44860;53.020;6.738;2022-12-07T15:23:05;3.85;;;1.10;;
59074;SDS011;44860;53.020;6.738;2022-12-07T15:25:32;5.97;;;1.35;;
59074;SDS011;44860;53.020;6.738;2022-12-07T15:27:58;4.88;;;1.48;;
59074;SDS011;44860;53.020;6.738;2022-12-07T15:30:23;7.22;;;1.90;;
59074;SDS011;44860;53.020;6.738;2022-12-07T15:32:49;7.07;;;2.10;;
59074;SDS011;44860;53.020;6.738;2022-12-07T15:35:16;5.25;;;2.03;;
59074;SDS011;44860;53.020;6.738;2022-12-07T15:37:41;7.78;;;1.95;;
59074;SDS011;44860;53.020;6.738;2022-12-07T15:40:07;5.80;;;1.70;;
59074;SDS011;44860;53.020;6.738;2022-12-07T15:42:33;4.00;;;1.30;;
59074;SDS011;44860;53.020;6.738;2022-12-07T15:45:00;5.45;;;1.30;;
59074;SDS011;44860;53.020;6.738;2022-12-07T15:47:33;6.10;;;1.70;;
59074;SDS011;44860;53.020;6.738;2022-12-07T15:50:01;7.90;;;2.47;;
59074;SDS011;44860;53.020;6.738;2022-12-07T15:52:31;5.13;;;2.13;;
59074;SDS011;44860;53.020;6.738;2022-12-07T15:54:57;7.28;;;2.50;;
59074;SDS011;44860;53.020;6.738;2022-12-07T15:57:24;6.10;;;2.50;;
59074;SDS011;44860;53.020;6.738;2022-12-07T15:59:51;7.07;;;3.33;;
59074;SDS011;44860;53.020;6.738;2022-12-07T16:02:18;6.75;;;3.10;;
59074;SDS011;44860;53.020;6.738;2022-12-07T16:04:44;6.55;;;3.15;;
59074;SDS011;44860;53.020;6.738;2022-12-07T16:07:10;7.38;;;3.70;;
59074;SDS011;44860;53.020;6.738;2022-12-07T16:09:36;7.18;;;3.88;;
59074;SDS011;44860;53.020;6.738;2022-12-07T16:12:02;7.28;;;4.57;;
59074;SDS011;44860;53.020;6.738;2022-12-07T16:14:28;8.98;;;5.30;;
59074;SDS011;44860;53.020;6.738;2022-12-07T16:16:54;16.05;;;11.55;;
59074;SDS011;44860;53.020;6.738;2022-12-07T16:19:20;23.65;;;16.40;;
59074;SDS011;44860;53.020;6.738;2022-12-07T16:21:46;16.95;;;10.77;;
59074;SDS011;44860;53.020;6.738;2022-12-07T16:24:11;16.52;;;11.25;;
59074;SDS011;44860;53.020;6.738;2022-12-07T16:26:40;14.38;;;10.43;;
59074;SDS011;44860;53.020;6.738;2022-12-07T16:29:05;12.07;;;9.13;;
59074;SDS011;44860;53.020;6.738;2022-12-07T16:31:31;10.52;;;7.93;;
59074;SDS011;44860;53.020;6.738;2022-12-07T16:33:57;8.50;;;4.70;;
59074;SDS011;44860;53.020;6.738;2022-12-07T16:36:23;11.43;;;5.45;;
59074;SDS011;44860;53.020;6.738;2022-12-07T16:38:51;8.82;;;5.20;;
59074;SDS011;44860;53.020;6.738;2022-12-07T16:41:17;13.70;;;6.50;;
59074;SDS011;44860;53.020;6.738;2022-12-07T16:43:43;10.90;;;7.10;;
59074;SDS011;44860;53.020;6.738;2022-12-07T16:46:09;11.43;;;6.07;;
59074;SDS011;44860;53.020;6.738;2022-12-07T16:48:36;14.70;;;7.90;;
59074;SDS011;44860;53.020;6.738;2022-12-07T16:51:06;10.30;;;4.85;;
59074;SDS011;44860;53.020;6.738;2022-12-07T16:53:34;6.90;;;4.40;;
59074;SDS011;44860;53.020;6.738;2022-12-07T16:56:01;9.00;;;5.50;;
59074;SDS011;44860;53.020;6.738;2022-12-07T16:58:27;11.35;;;5.30;;
59074;SDS011;44860;53.020;6.738;2022-12-07T17:00:53;9.30;;;5.25;;
59074;SDS011;44860;53.020;6.738;2022-12-07T17:03:19;8.98;;;3.92;;
59074;SDS011;44860;53.020;6.738;2022-12-07T17:05:45;8.35;;;3.50;;
59074;SDS011;44860;53.020;6.738;2022-12-07T17:08:12;7.93;;;3.65;;
59074;SDS011;44860;53.020;6.738;2022-12-07T17:10:39;9.48;;;4.95;;